createdAt,value
2022-09-22T00:01:34.447Z,99060.66
2022-09-22T00:04:13.809Z,99050.69
2022-09-22T00:06:51.359Z,99054.41
2022-09-22T00:09:21.487Z,99048.34
2022-09-22T00:11:53.957Z,99058.50
2022-09-22T00:14:28.195Z,99050.94
2022-09-22T00:17:02.153Z,99060.03
2022-09-22T00:19:39.191Z,99053.19
2022-09-22T00:22:07.053Z,99058.19
2022-09-22T00:24:35.132Z,99056.13
2022-09-22T00:27:02.836Z,99050.75
2022-09-22T00:29:30.915Z,99054.16
2022-09-22T00:32:00.380Z,99047.56
2022-09-22T00:34:30.886Z,99050.41
2022-09-22T00:36:58.203Z,99049.78
2022-09-22T00:39:27.192Z,99042.38
2022-09-22T00:41:54.474Z,99043.44
2022-09-22T00:44:29.893Z,99032.34
2022-09-22T00:47:47.856Z,99034.25
2022-09-22T00:50:23.488Z,99028.88
2022-09-22T00:53:10.298Z,99036.34
2022-09-22T00:56:01.599Z,99032.22
2022-09-22T00:58:37.903Z,99033.75
2022-09-22T01:01:07.757Z,99031.78
2022-09-22T01:03:39.173Z,99028.06
2022-09-22T01:06:12.588Z,99024.19
2022-09-22T01:08:40.661Z,99033.63
2022-09-22T01:11:08.347Z,99034.34
2022-09-22T01:14:48.716Z,99038.09
2022-09-22T01:17:47.252Z,99034.16
2022-09-22T01:21:11.231Z,99031.31
2022-09-22T01:24:41.128Z,99034.31
2022-09-22T01:27:53.876Z,99026.66
2022-09-22T01:30:43.655Z,99035.84
2022-09-22T01:33:40.952Z,99028.28
2022-09-22T01:36:40.147Z,99029.13
2022-09-22T01:39:53.844Z,99028.31
2022-09-22T01:42:40.076Z,99026.72
2022-09-22T01:45:18.573Z,99026.28
2022-09-22T01:47:55.084Z,99021.22
2022-09-22T01:50:45.283Z,99019.59
2022-09-22T01:53:18.409Z,99019.19
2022-09-22T01:55:59.124Z,99017.56
2022-09-22T01:58:34.330Z,99004.41
2022-09-22T02:01:20.419Z,99006.28
2022-09-22T02:04:09.420Z,99008.13
2022-09-22T02:06:48.456Z,99007.25
2022-09-22T02:09:21.503Z,98999.19
2022-09-22T02:11:49.255Z,99000.91
2022-09-22T02:14:17.249Z,98999.53
2022-09-22T02:16:44.756Z,99005.28
2022-09-22T02:19:36.233Z,99000.44
2022-09-22T02:22:07.043Z,99008.03
2022-09-22T02:24:44.510Z,99000.63
2022-09-22T02:27:27.532Z,99008.88
2022-09-22T02:30:11.104Z,99010.34
2022-09-22T02:32:46.155Z,99009.00
2022-09-22T02:35:14.493Z,99003.06
2022-09-22T02:37:56.087Z,99014.19
2022-09-22T02:41:00.757Z,99009.94
2022-09-22T02:43:58.606Z,99013.16
2022-09-22T02:47:07.859Z,99014.28
2022-09-22T02:49:35.503Z,99009.22
2022-09-22T02:52:08.939Z,99015.66
2022-09-22T02:54:36.260Z,99011.63
2022-09-22T02:57:03.663Z,99016.09
2022-09-22T02:59:30.923Z,99022.53
2022-09-22T03:01:58.226Z,99015.19
2022-09-22T03:04:25.919Z,99014.75
2022-09-22T03:06:54.004Z,99013.84
2022-09-22T03:09:21.255Z,99009.47
2022-09-22T03:11:48.531Z,99006.28
2022-09-22T03:14:15.823Z,99006.94
2022-09-22T03:16:43.080Z,99004.78
2022-09-22T03:19:10.327Z,99002.81
2022-09-22T03:21:38.147Z,99000.97
2022-09-22T03:24:05.952Z,98997.03
2022-09-22T03:26:34.795Z,99007.63
2022-09-22T03:29:03.872Z,99008.41
2022-09-22T03:31:31.123Z,99011.94
2022-09-22T03:34:02.004Z,99013.03
2022-09-22T03:36:29.301Z,99010.03
2022-09-22T03:38:56.788Z,99015.78
2022-09-22T03:41:24.260Z,99022.44
2022-09-22T03:43:51.571Z,99014.19
2022-09-22T03:46:18.992Z,99012.59
2022-09-22T03:48:46.281Z,99031.66
2022-09-22T03:51:13.698Z,99018.34
2022-09-22T03:53:41.243Z,99028.13
2022-09-22T03:56:14.613Z,99023.56
2022-09-22T03:58:43.100Z,99004.06
2022-09-22T04:01:11.596Z,99019.09
2022-09-22T04:03:39.884Z,99012.09
2022-09-22T04:06:07.932Z,99010.09
2022-09-22T04:08:35.979Z,99014.78
2022-09-22T04:11:06.704Z,99013.47
2022-09-22T04:13:35.472Z,99017.66
2022-09-22T04:16:05.320Z,99015.41
2022-09-22T04:18:32.862Z,99021.03
2022-09-22T04:21:01.109Z,99023.09
2022-09-22T04:23:28.391Z,99015.75
2022-09-22T04:25:56.488Z,99024.38
2022-09-22T04:28:23.739Z,99016.22
2022-09-22T04:30:52.838Z,99017.19
2022-09-22T04:33:20.388Z,99018.06
2022-09-22T04:35:51.887Z,99012.91
2022-09-22T04:38:19.460Z,99012.31
2022-09-22T04:40:46.910Z,99023.34
2022-09-22T04:43:14.256Z,99020.69
2022-09-22T04:45:47.267Z,99024.41
2022-09-22T04:48:16.817Z,99025.91
2022-09-22T04:50:48.070Z,99028.03
2022-09-22T04:53:16.148Z,99015.25
2022-09-22T04:55:43.397Z,99026.56
2022-09-22T04:58:10.669Z,99032.19
2022-09-22T05:00:38.528Z,99026.06
2022-09-22T05:03:13.002Z,99021.28
2022-09-22T05:05:40.517Z,99027.41
2022-09-22T05:08:07.878Z,99030.44
2022-09-22T05:10:35.795Z,99036.75
2022-09-22T05:13:04.108Z,99029.44
2022-09-22T05:15:33.155Z,99033.28
2022-09-22T05:18:00.564Z,99029.94
2022-09-22T05:20:28.644Z,99027.00
2022-09-22T05:22:55.898Z,99038.00
2022-09-22T05:25:23.212Z,99035.38
2022-09-22T05:27:55.263Z,99042.81
2022-09-22T05:30:26.463Z,99031.34
2022-09-22T05:32:54.783Z,99038.22
2022-09-22T05:35:25.028Z,99034.47
2022-09-22T05:37:53.721Z,99029.53
2022-09-22T05:40:24.092Z,99042.72
2022-09-22T05:42:53.637Z,99040.75
2022-09-22T05:45:21.952Z,99044.41
2022-09-22T05:47:49.633Z,99042.94
2022-09-22T05:50:20.728Z,99043.97
2022-09-22T05:52:48.047Z,99041.41
2022-09-22T05:55:15.716Z,99041.41
2022-09-22T05:57:43.964Z,99041.50
2022-09-22T06:00:13.572Z,99033.75
2022-09-22T06:02:43.998Z,99035.59
2022-09-22T06:05:11.409Z,99032.28
2022-09-22T06:07:38.768Z,99037.34
2022-09-22T06:10:07.609Z,99032.28
2022-09-22T06:12:34.861Z,99037.34
2022-09-22T06:15:02.179Z,99041.47
2022-09-22T06:17:29.550Z,99031.84
2022-09-22T06:20:00.798Z,99035.44
2022-09-22T06:22:28.193Z,99035.56
2022-09-22T06:24:55.456Z,99039.56
2022-09-22T06:27:22.756Z,99035.56
2022-09-22T06:29:50.020Z,99034.41
2022-09-22T06:32:19.421Z,99035.53
2022-09-22T06:34:47.543Z,99046.59
2022-09-22T06:37:16.147Z,99046.00
2022-09-22T06:39:43.427Z,99040.25
2022-09-22T06:42:10.911Z,99033.47
2022-09-22T06:44:38.720Z,99035.44
2022-09-22T06:47:06.030Z,99037.63
2022-09-22T06:49:33.315Z,99041.41
2022-09-22T06:52:00.697Z,99034.13
2022-09-22T06:54:28.767Z,99037.00
2022-09-22T06:56:56.050Z,99036.81
2022-09-22T06:59:23.323Z,99036.66
2022-09-22T07:01:50.658Z,99031.84
2022-09-22T07:04:18.039Z,99033.09
2022-09-22T07:06:45.754Z,99035.38
2022-09-22T07:09:13.073Z,99039.88
2022-09-22T07:11:40.694Z,99031.03
2022-09-22T07:14:09.105Z,99040.41
2022-09-22T07:16:37.191Z,99046.38
2022-09-22T07:19:05.570Z,99034.66
2022-09-22T07:21:36.360Z,99025.94
2022-09-22T07:24:08.188Z,99025.22
2022-09-22T07:26:39.983Z,99025.47
2022-09-22T07:29:13.816Z,99023.56
2022-09-22T07:31:42.040Z,99016.25
2022-09-22T07:34:09.500Z,99018.06
2022-09-22T07:36:40.033Z,99016.69
2022-09-22T07:39:11.122Z,99018.34
2022-09-22T07:41:43.083Z,99024.16
2022-09-22T07:44:34.771Z,99027.63
2022-09-22T07:47:03.701Z,99033.50
2022-09-22T07:49:31.108Z,99025.56
2022-09-22T07:51:58.868Z,99020.31
2022-09-22T07:54:27.897Z,99022.56
2022-09-22T07:56:58.352Z,99025.63
2022-09-22T07:59:27.167Z,99021.53
2022-09-22T08:01:54.534Z,99016.72
2022-09-22T08:04:23.702Z,99019.78
2022-09-22T08:06:56.803Z,99014.69
2022-09-22T08:09:27.088Z,99017.53
2022-09-22T08:11:55.082Z,99014.00
2022-09-22T08:14:23.174Z,99017.56
2022-09-22T08:16:53.437Z,99007.31
2022-09-22T08:19:23.687Z,98999.47
2022-09-22T08:21:54.448Z,99009.25
2022-09-22T08:24:23.524Z,99003.19
2022-09-22T08:26:55.835Z,99009.28
2022-09-22T08:29:24.487Z,99005.13
2022-09-22T08:31:52.077Z,99006.97
2022-09-22T08:34:20.235Z,99006.63
2022-09-22T08:36:50.286Z,99005.44
2022-09-22T08:39:18.758Z,99003.59
2022-09-22T08:42:15.722Z,99013.06
2022-09-22T08:45:30.076Z,99000.59
2022-09-22T08:48:39.864Z,99003.59
2022-09-22T08:51:42.988Z,98994.72
2022-09-22T08:54:10.692Z,98990.56
2022-09-22T08:56:59.152Z,98989.97
2022-09-22T08:59:52.079Z,98989.00
2022-09-22T09:03:16.579Z,98988.09
2022-09-22T09:06:04.214Z,98991.19
2022-09-22T09:09:05.720Z,98993.66
2022-09-22T09:12:17.984Z,98986.03
2022-09-22T09:15:43.665Z,98991.97
2022-09-22T09:18:22.956Z,98988.97
2022-09-22T09:20:52.700Z,98983.00
2022-09-22T09:26:20.633Z,98980.00
2022-09-22T09:29:03.044Z,98986.88
2022-09-22T09:31:48.922Z,98980.72
2022-09-22T09:34:24.554Z,98986.94
2022-09-22T09:37:07.797Z,98976.28
2022-09-22T09:39:42.596Z,98982.91
2022-09-22T09:42:27.412Z,98980.06
2022-09-22T09:44:57.627Z,98981.47
2022-09-22T09:48:17.269Z,98969.50
2022-09-22T09:50:44.603Z,98970.91
2022-09-22T09:53:44.009Z,98973.78
2022-09-22T09:56:29.938Z,98966.22
2022-09-22T09:59:26.397Z,98963.88
2022-09-22T10:01:54.813Z,98957.72
2022-09-22T10:04:35.208Z,98957.44
2022-09-22T10:07:41.860Z,98954.28
2022-09-22T10:10:37.337Z,98952.09
2022-09-22T10:13:26.152Z,98950.06
2022-09-22T10:16:22.540Z,98945.41
2022-09-22T10:18:58.904Z,98941.03
2022-09-22T10:21:28.156Z,98940.63
2022-09-22T10:24:00.747Z,98937.03
2022-09-22T10:26:33.463Z,98928.66
2022-09-22T10:29:12.459Z,98929.44
2022-09-22T10:31:41.945Z,98926.56
2022-09-22T10:34:41.839Z,98942.41
2022-09-22T10:37:23.301Z,98934.47
2022-09-22T10:40:03.145Z,98939.91
2022-09-22T10:42:46.177Z,98931.22
2022-09-22T10:45:20.125Z,98931.44
2022-09-22T10:48:54.800Z,98924.06
2022-09-22T10:52:43.776Z,98921.88
2022-09-22T10:56:21.096Z,98921.44
2022-09-22T10:59:44.159Z,98922.66
2022-09-22T11:03:07.798Z,98923.28
2022-09-22T11:07:31.988Z,98918.47
2022-09-22T11:10:34.439Z,98922.38
2022-09-22T11:14:00.476Z,98918.31
2022-09-22T11:17:17.206Z,98922.34
2022-09-22T11:20:22.982Z,98916.19
2022-09-22T11:23:24.767Z,98916.34
2022-09-22T11:26:02.455Z,98903.94
2022-09-22T11:29:23.405Z,98909.72
2022-09-22T11:32:30.160Z,98909.72
2022-09-22T11:35:37.417Z,98903.25
2022-09-22T11:39:12.195Z,98900.16
2022-09-22T11:42:46.056Z,98899.88
2022-09-22T11:46:06.768Z,98902.84
2022-09-22T11:49:20.872Z,98896.97
2022-09-22T11:52:31.113Z,98891.53
2022-09-22T11:55:46.987Z,98889.56
2022-09-22T11:58:23.192Z,98882.94
2022-09-22T12:01:14.934Z,98879.94
2022-09-22T12:04:17.575Z,98872.22
2022-09-22T12:06:50.612Z,98876.06
2022-09-22T12:09:42.312Z,98872.50
2022-09-22T12:12:19.996Z,98871.34
2022-09-22T12:15:38.089Z,98863.19
2022-09-22T12:18:39.224Z,98868.28
2022-09-22T12:21:49.039Z,98864.19
2022-09-22T12:24:16.704Z,98862.31
2022-09-22T12:26:48.131Z,98861.97
2022-09-22T12:29:15.231Z,98849.03
2022-09-22T12:31:48.405Z,98851.19
2022-09-22T12:34:28.075Z,98850.13
2022-09-22T12:37:08.404Z,98845.75
2022-09-22T12:39:48.180Z,98844.84
2022-09-22T12:42:40.255Z,98839.38
2022-09-22T12:45:42.223Z,98844.63
2022-09-22T12:48:22.900Z,98827.59
2022-09-22T12:50:52.379Z,98837.28
2022-09-22T12:53:23.821Z,98830.31
2022-09-22T12:55:54.460Z,98822.97
2022-09-22T12:58:21.561Z,98828.84
2022-09-22T13:01:34.199Z,98824.78
2022-09-22T13:04:18.023Z,98818.47
2022-09-22T13:06:45.853Z,98807.81
2022-09-22T13:09:25.951Z,98812.59
2022-09-22T13:12:12.341Z,98814.88
2022-09-22T13:15:07.345Z,98819.63
2022-09-22T13:17:50.623Z,98804.38
2022-09-22T13:20:35.509Z,98808.50
2022-09-22T13:23:12.966Z,98812.72
2022-09-22T13:25:42.551Z,98802.06
2022-09-22T13:28:09.611Z,98803.91
2022-09-22T13:30:40.176Z,98803.25
2022-09-22T13:33:25.711Z,98809.38
2022-09-22T13:36:16.883Z,98792.81
2022-09-22T13:38:55.252Z,98804.69
2022-09-22T13:41:29.764Z,98801.44
2022-09-22T13:44:11.826Z,98792.63
2022-09-22T13:46:50.305Z,98788.75
2022-09-22T13:49:43.742Z,98781.78
2022-09-22T13:52:32.224Z,98785.53
2022-09-22T13:55:13.152Z,98780.69
2022-09-22T13:57:41.684Z,98779.38
2022-09-22T14:00:24.671Z,98777.41
2022-09-22T14:02:55.867Z,98772.28
2022-09-22T14:05:33.654Z,98775.03
2022-09-22T14:08:12.807Z,98764.22
2022-09-22T14:10:44.452Z,98774.00
2022-09-22T14:13:53.927Z,98774.91
2022-09-22T14:16:37.326Z,98778.19
2022-09-22T14:20:00.227Z,98768.06
2022-09-22T14:22:34.316Z,98768.13
2022-09-22T14:25:03.651Z,98762.06
2022-09-22T14:27:53.174Z,98770.94
2022-09-22T14:30:21.934Z,98765.44
2022-09-22T14:33:01.620Z,98753.63
2022-09-22T14:35:37.308Z,98752.81
2022-09-22T14:38:18.059Z,98751.47
2022-09-22T14:41:02.857Z,98750.78
2022-09-22T14:43:42.092Z,98756.75
2022-09-22T14:46:41.336Z,98747.06
2022-09-22T14:49:43.196Z,98745.78
2022-09-22T14:52:34.711Z,98733.31
2022-09-22T14:55:50.308Z,98740.16
2022-09-22T14:58:30.197Z,98746.22
2022-09-22T15:01:47.297Z,98737.63
2022-09-22T15:04:28.525Z,98747.78
2022-09-22T15:06:59.062Z,98737.38
2022-09-22T15:09:42.586Z,98750.50
2022-09-22T15:12:49.222Z,98730.50
2022-09-22T15:15:29.211Z,98739.03
2022-09-22T15:18:16.653Z,98738.94
2022-09-22T15:21:02.890Z,98737.50
2022-09-22T15:23:44.976Z,98734.56
2022-09-22T15:26:25.684Z,98726.63
2022-09-22T15:29:01.609Z,98737.09
2022-09-22T15:31:29.903Z,98728.31
2022-09-22T15:34:01.543Z,98723.28
2022-09-22T15:36:32.881Z,98728.47
2022-09-22T15:39:21.546Z,98730.63
2022-09-22T15:41:49.593Z,98723.66
2022-09-22T15:44:19.633Z,98725.34
2022-09-22T15:46:54.044Z,98725.81
2022-09-22T15:49:26.492Z,98727.91
2022-09-22T15:51:57.478Z,98724.72
2022-09-22T15:54:26.364Z,98723.91
2022-09-22T15:56:56.383Z,98724.06
2022-09-22T15:59:32.319Z,98724.06
2022-09-22T16:02:01.201Z,98715.81
2022-09-22T16:04:31.438Z,98715.72
2022-09-22T16:07:04.721Z,98718.91
2022-09-22T16:09:32.096Z,98722.38
2022-09-22T16:11:59.664Z,98713.44
2022-09-22T16:14:26.954Z,98713.19
2022-09-22T16:16:54.248Z,98714.88
2022-09-22T16:19:21.576Z,98713.97
2022-09-22T16:21:55.955Z,98713.81
2022-09-22T16:24:23.473Z,98706.22
2022-09-22T16:26:51.800Z,98713.88
2022-09-22T16:29:20.356Z,98701.75
2022-09-22T16:31:47.691Z,98712.88
2022-09-22T16:34:15.022Z,98713.59
2022-09-22T16:36:44.508Z,98703.66
2022-09-22T16:39:11.759Z,98707.09
2022-09-22T16:41:46.751Z,98709.63
2022-09-22T16:44:14.225Z,98707.47
2022-09-22T16:46:43.466Z,98701.09
2022-09-22T16:49:16.245Z,98712.78
2022-09-22T16:51:49.697Z,98714.72
2022-09-22T16:54:19.465Z,98708.25
2022-09-22T16:56:50.455Z,98705.69
2022-09-22T16:59:23.216Z,98711.06
2022-09-22T17:01:53.154Z,98702.69
2022-09-22T17:04:20.567Z,98708.00
2022-09-22T17:06:49.806Z,98721.25
2022-09-22T17:09:18.940Z,98716.25
2022-09-22T17:11:49.135Z,98706.09
2022-09-22T17:14:24.409Z,98714.88
2022-09-22T17:16:55.391Z,98712.50
2022-09-22T17:19:27.899Z,98715.75
2022-09-22T17:21:56.739Z,98712.81
2022-09-22T17:24:26.818Z,98710.16
2022-09-22T17:27:01.743Z,98720.28
2022-09-22T17:29:32.595Z,98712.38
2022-09-22T17:32:09.124Z,98715.16
2022-09-22T17:34:38.266Z,98722.09
2022-09-22T17:37:05.788Z,98721.81
2022-09-22T17:39:33.308Z,98718.63
2022-09-22T17:42:00.763Z,98723.75
2022-09-22T17:44:30.979Z,98720.59
2022-09-22T17:47:18.652Z,98724.28
2022-09-22T17:50:04.743Z,98723.38
2022-09-22T17:52:31.983Z,98725.53
2022-09-22T17:55:06.978Z,98720.06
2022-09-22T17:57:39.677Z,98730.03
2022-09-22T18:00:20.932Z,98731.81
2022-09-22T18:02:53.330Z,98733.50
2022-09-22T18:05:26.490Z,98729.81
2022-09-22T18:07:58.416Z,98732.47
2022-09-22T18:10:30.919Z,98729.66
2022-09-22T18:12:59.304Z,98737.59
2022-09-22T18:15:28.031Z,98735.22
2022-09-22T18:17:57.692Z,98735.34
2022-09-22T18:20:26.227Z,98734.69
2022-09-22T18:22:54.726Z,98741.16
2022-09-22T18:25:25.474Z,98750.81
2022-09-22T18:27:53.533Z,98745.03
2022-09-22T18:30:20.975Z,98744.34
2022-09-22T18:32:48.938Z,98742.50
2022-09-22T18:35:16.668Z,98744.03
2022-09-22T18:37:44.012Z,98745.13
2022-09-22T18:40:13.052Z,98749.50
2022-09-22T18:42:43.277Z,98744.91
2022-09-22T18:45:12.432Z,98750.09
2022-09-22T18:47:43.161Z,98748.13
2022-09-22T18:50:12.054Z,98753.72
2022-09-22T18:52:42.831Z,98756.88
2022-09-22T18:55:14.075Z,98754.66
2022-09-22T18:57:41.376Z,98753.81
2022-09-22T19:00:12.500Z,98760.22
2022-09-22T19:02:39.900Z,98757.47
2022-09-22T19:05:07.899Z,98765.06
2022-09-22T19:07:43.381Z,98767.50
2022-09-22T19:10:21.478Z,98765.94
2022-09-22T19:12:50.156Z,98760.34
2022-09-22T19:15:19.319Z,98755.56
2022-09-22T19:17:49.470Z,98760.72
2022-09-22T19:20:23.286Z,98756.34
2022-09-22T19:22:52.321Z,98754.78
2022-09-22T19:25:22.074Z,98760.72
2022-09-22T19:27:53.328Z,98756.34
2022-09-22T19:30:25.579Z,98757.56
2022-09-22T19:32:55.883Z,98740.44
2022-09-22T19:35:23.347Z,98759.94
2022-09-22T19:37:51.835Z,98764.31
2022-09-22T19:40:24.752Z,98750.81
2022-09-22T19:42:54.232Z,98752.38
2022-09-22T19:45:23.972Z,98758.34
2022-09-22T19:47:58.471Z,98755.97
2022-09-22T19:50:26.486Z,98749.63
2022-09-22T19:52:53.868Z,98747.22
2022-09-22T19:55:21.499Z,98746.81
2022-09-22T19:57:49.900Z,98752.78
2022-09-22T20:00:17.978Z,98751.97
2022-09-22T20:02:46.048Z,98758.75
2022-09-22T20:05:21.952Z,98756.34
2022-09-22T20:07:50.365Z,98757.94
2022-09-22T20:10:22.495Z,98759.13
2022-09-22T20:12:51.988Z,98757.13
2022-09-22T20:15:20.272Z,98755.53
2022-09-22T20:17:47.996Z,98759.44
2022-09-22T20:20:25.784Z,98749.16
2022-09-22T20:23:00.136Z,98747.97
2022-09-22T20:25:32.275Z,98746.31
2022-09-22T20:28:00.491Z,98747.09
2022-09-22T20:30:27.900Z,98751.47
2022-09-22T20:32:55.161Z,98747.44
2022-09-22T20:35:22.442Z,98748.63
2022-09-22T20:37:51.488Z,98745.81
2022-09-22T20:40:22.022Z,98754.22
2022-09-22T20:42:53.106Z,98750.63
2022-09-22T20:45:25.207Z,98745.84
2022-09-22T20:47:56.049Z,98747.75
2022-09-22T20:50:23.640Z,98735.84
2022-09-22T20:52:50.953Z,98750.16
2022-09-22T20:55:18.264Z,98738.63
2022-09-22T20:57:45.553Z,98741.03
2022-09-22T21:00:16.128Z,98744.13
2022-09-22T21:02:44.237Z,98740.91
2022-09-22T21:05:11.524Z,98750.81
2022-09-22T21:07:39.612Z,98751.09
2022-09-22T21:10:25.644Z,98745.09
2022-09-22T21:12:55.126Z,98745.44
2022-09-22T21:15:22.822Z,98743.94
2022-09-22T21:17:50.417Z,98746.00
2022-09-22T21:20:17.743Z,98741.09
2022-09-22T21:22:45.102Z,98742.31
2022-09-22T21:25:12.863Z,98744.63
2022-09-22T21:27:40.284Z,98746.50
2022-09-22T21:30:08.495Z,98736.50
2022-09-22T21:32:35.789Z,98742.16
2022-09-22T21:35:03.184Z,98733.28
2022-09-22T21:37:31.334Z,98735.25
2022-09-22T21:39:58.596Z,98732.56
2022-09-22T21:42:26.876Z,98731.72
2022-09-22T21:44:54.171Z,98723.00
2022-09-22T21:47:21.421Z,98726.91
2022-09-22T21:49:50.377Z,98701.00
2022-09-22T21:52:17.685Z,98727.56
2022-09-22T21:54:44.933Z,98731.19
2022-09-22T21:57:12.215Z,98722.66
2022-09-22T21:59:39.455Z,98717.91
2022-09-22T22:02:06.719Z,98726.94
2022-09-22T22:04:34.430Z,98726.09
2022-09-22T22:07:01.917Z,98721.16
2022-09-22T22:09:29.180Z,98717.50
2022-09-22T22:11:59.331Z,98714.41
2022-09-22T22:14:33.426Z,98717.91
2022-09-22T22:17:02.345Z,98710.94
2022-09-22T22:19:29.956Z,98707.94
2022-09-22T22:21:57.248Z,98706.59
2022-09-22T22:24:28.753Z,98705.38
2022-09-22T22:27:07.817Z,98708.88
2022-09-22T22:29:36.613Z,98704.06
2022-09-22T22:32:08.871Z,98708.44
2022-09-22T22:34:36.732Z,98705.53
2022-09-22T22:37:07.035Z,98705.97
2022-09-22T22:39:34.403Z,98707.13
2022-09-22T22:42:02.517Z,98707.25
2022-09-22T22:44:29.808Z,98706.28
2022-09-22T22:46:57.163Z,98700.47
2022-09-22T22:49:25.340Z,98705.56
2022-09-22T22:51:52.778Z,98696.69
2022-09-22T22:54:20.046Z,98700.63
2022-09-22T22:56:51.001Z,98698.31
2022-09-22T22:59:19.318Z,98699.16
2022-09-22T23:01:46.669Z,98698.97
2022-09-22T23:04:14.031Z,98696.81
2022-09-22T23:06:44.093Z,98695.09
2022-09-22T23:09:16.742Z,98696.97
2022-09-22T23:11:46.194Z,98692.00
2022-09-22T23:14:15.893Z,98691.81
2022-09-22T23:16:47.591Z,98696.09
2022-09-22T23:19:18.274Z,98688.38
2022-09-22T23:21:46.718Z,98693.75
2022-09-22T23:24:18.816Z,98693.91
2022-09-22T23:26:47.040Z,98693.91
2022-09-22T23:29:14.491Z,98699.25
2022-09-22T23:31:42.253Z,98699.88
2022-09-22T23:34:09.675Z,98698.59
2022-09-22T23:36:37.052Z,98693.31
2022-09-22T23:39:05.031Z,98692.59
2022-09-22T23:41:36.210Z,98697.53
2022-09-22T23:44:08.463Z,98703.13
2022-09-22T23:46:37.468Z,98698.81
2022-09-22T23:49:06.151Z,98695.78
2022-09-22T23:51:33.419Z,98699.06
2022-09-22T23:54:01.269Z,98697.47
2022-09-22T23:56:28.681Z,98697.03
2022-09-22T23:58:56.121Z,98695.69
